Oakland Township, Michigan
Current Conditions -  °F | °C
As of 9:53 AM on Thursday 18 Dec 2014 (Local Time) from KPTK Reporting Station
Haze Haze  
Wind Chill: 21°   Ceiling: 700
Heat Index: 29°   Visibility: 3mi
Dew Point: 26°   Wind: 8mph
Humidity: 89%   Direction: 270°W
Pressure: 30.17"   Gusts: NA
Location:  42.7595°N, 83.2105°W
Report Text: KPTK 181453Z 27007KT 3SM BR OVC007 M02/M03 A3017 RMK AO2 CIG 005V010 SLP230 I1000 I3000 T10171033 53006
Loading
Personal Weather Stations






























Interactive Weather Map New forecast layout! Learn more

10-Day Weather Forecast

Advertisements
Track Severe Weather on mobile